createdAt,value
2022-10-26T00:03:40.205Z,3.50
2022-10-26T00:07:42.068Z,65.13
2022-10-26T00:11:43.987Z,147.48
2022-10-26T00:15:45.793Z,140.73
2022-10-26T00:19:47.624Z,89.43
2022-10-26T00:23:49.483Z,12.90
2022-10-26T00:27:51.578Z,14.18
2022-10-26T00:31:53.580Z,3.75
2022-10-26T00:35:55.452Z,2.92
2022-10-26T00:39:57.322Z,6.70
2022-10-26T00:43:59.803Z,4.90
2022-10-26T00:48:12.856Z,3.55
2022-10-26T00:52:16.495Z,2.15
2022-10-26T00:56:19.090Z,3.45
2022-10-26T01:00:21.584Z,2.90
2022-10-26T01:04:23.508Z,2.40
2022-10-26T01:08:28.275Z,2.63
2022-10-26T01:12:30.173Z,2.05
2022-10-26T01:16:50.867Z,1.80
2022-10-26T01:21:14.208Z,1.83
2022-10-26T01:25:49.164Z,1.63
2022-10-26T01:30:02.448Z,9.70
2022-10-26T01:34:13.502Z,25.50
2022-10-26T01:38:27.174Z,25.85
2022-10-26T01:42:31.163Z,17.17
2022-10-26T01:46:38.478Z,23.23
2022-10-26T01:50:42.979Z,10.77
2022-10-26T01:54:44.808Z,89.35
2022-10-26T01:58:58.228Z,115.53
2022-10-26T02:03:09.000Z,85.32
2022-10-26T02:07:16.220Z,19.67
2022-10-26T02:11:47.479Z,3.72
2022-10-26T02:16:11.581Z,3.78
2022-10-26T02:20:22.258Z,1.90
2022-10-26T02:24:26.098Z,2.30
2022-10-26T02:28:34.320Z,2.88
2022-10-26T02:36:44.521Z,2.35
2022-10-26T02:40:49.972Z,2.13
2022-10-26T02:45:00.472Z,1.92
2022-10-26T02:49:02.328Z,2.65
2022-10-26T02:53:24.930Z,2.60
2022-10-26T02:57:32.206Z,1.85
2022-10-26T03:01:35.440Z,2.55
2022-10-26T03:05:41.308Z,3.17
2022-10-26T03:09:43.134Z,3.38
2022-10-26T03:13:45.192Z,1.70
2022-10-26T03:17:47.268Z,3.15
2022-10-26T03:21:49.313Z,2.15
2022-10-26T03:25:51.191Z,3.60
2022-10-26T03:29:53.348Z,3.28
2022-10-26T03:33:55.191Z,3.15
2022-10-26T03:37:57.087Z,2.15
2022-10-26T03:41:59.576Z,1.80
2022-10-26T03:46:01.446Z,2.38
2022-10-26T03:50:03.420Z,2.05
2022-10-26T03:54:05.532Z,2.90
2022-10-26T03:58:07.409Z,2.42
2022-10-26T04:02:09.298Z,4.90
2022-10-26T04:06:11.133Z,4.05
2022-10-26T04:10:12.938Z,2.72
2022-10-26T04:14:14.812Z,2.42
2022-10-26T04:18:16.891Z,3.08
2022-10-26T04:22:18.783Z,2.90
2022-10-26T04:26:20.784Z,3.30
2022-10-26T04:30:23.074Z,2.47
2022-10-26T04:34:24.938Z,2.00
2022-10-26T04:38:26.974Z,3.08
2022-10-26T04:42:28.842Z,3.13
2022-10-26T04:46:30.750Z,4.45
2022-10-26T04:50:33.052Z,4.82
2022-10-26T04:54:34.915Z,2.75
2022-10-26T04:58:36.736Z,2.90
2022-10-26T05:02:38.590Z,3.33
2022-10-26T05:06:40.450Z,1.98
2022-10-26T05:10:42.826Z,3.33
2022-10-26T05:14:45.231Z,2.10
2022-10-26T05:18:50.014Z,2.75
2022-10-26T05:22:55.694Z,2.83
2022-10-26T05:26:57.539Z,4.25
2022-10-26T05:30:59.691Z,1.98
2022-10-26T05:35:01.530Z,2.08
2022-10-26T05:39:03.455Z,2.17
2022-10-26T05:43:05.366Z,3.75
2022-10-26T05:47:07.176Z,3.20
2022-10-26T05:51:09.071Z,3.85
2022-10-26T05:55:13.168Z,2.90
2022-10-26T05:59:16.751Z,9.23
2022-10-26T06:03:21.589Z,5.53
2022-10-26T06:07:23.741Z,3.85
2022-10-26T06:11:25.823Z,3.10
2022-10-26T06:15:29.247Z,3.20
2022-10-26T06:19:49.442Z,4.32
2022-10-26T06:24:04.340Z,3.00
2022-10-26T06:28:33.395Z,1.73
2022-10-26T06:36:38.935Z,2.00
2022-10-26T06:40:43.609Z,1.70
2022-10-26T06:44:45.723Z,3.72
2022-10-26T06:48:54.395Z,2.03
2022-10-26T06:53:17.896Z,5.43
2022-10-26T06:57:21.968Z,3.80
2022-10-26T07:01:23.931Z,2.20
2022-10-26T07:05:25.948Z,2.42
2022-10-26T07:09:27.775Z,1.10
2022-10-26T07:13:29.580Z,1.98
2022-10-26T07:17:31.618Z,1.63
2022-10-26T07:21:33.447Z,3.83
2022-10-26T07:25:38.958Z,2.83
2022-10-26T07:29:40.771Z,1.40
2022-10-26T07:33:43.062Z,0.70
2022-10-26T07:37:44.893Z,1.15
2022-10-26T07:41:47.328Z,1.00
2022-10-26T07:45:50.925Z,1.60
2022-10-26T07:49:52.767Z,1.63
2022-10-26T07:53:54.620Z,7.28
2022-10-26T07:57:56.902Z,9.93
2022-10-26T08:01:59.104Z,11.93
2022-10-26T08:06:01.644Z,2.70
2022-10-26T08:10:04.741Z,0.88
2022-10-26T08:14:06.590Z,2.25
2022-10-26T08:18:08.463Z,4.72
2022-10-26T08:22:10.437Z,5.18
2022-10-26T08:26:12.368Z,8.00
2022-10-26T08:30:14.421Z,3.63
2022-10-26T08:34:16.319Z,2.10
2022-10-26T08:38:18.149Z,1.27
2022-10-26T08:42:36.042Z,1.80
2022-10-26T08:46:42.929Z,3.00
2022-10-26T08:50:55.375Z,3.08
2022-10-26T08:54:59.396Z,4.07
2022-10-26T08:59:28.946Z,2.80
2022-10-26T09:03:31.504Z,5.72
2022-10-26T09:07:59.139Z,4.13
2022-10-26T09:12:19.171Z,2.45
2022-10-26T09:16:52.801Z,5.30
2022-10-26T09:21:05.996Z,2.47
2022-10-26T09:25:32.085Z,2.80
2022-10-26T09:29:41.533Z,2.90
2022-10-26T09:33:43.418Z,3.85
2022-10-26T09:38:14.483Z,2.35
2022-10-26T09:42:21.475Z,1.20
2022-10-26T09:46:29.466Z,2.45
2022-10-26T09:54:33.122Z,5.78
2022-10-26T09:58:46.511Z,4.68
2022-10-26T10:02:56.959Z,2.75
2022-10-26T10:07:01.943Z,3.00
2022-10-26T10:11:12.639Z,2.97
2022-10-26T10:15:21.291Z,1.55
2022-10-26T10:19:30.317Z,1.95
2022-10-26T10:23:34.699Z,2.83
2022-10-26T10:27:36.532Z,2.67
2022-10-26T10:31:39.268Z,5.10
2022-10-26T10:35:50.936Z,10.02
2022-10-26T10:40:00.649Z,2.28
2022-10-26T10:44:30.296Z,4.25
2022-10-26T10:48:34.566Z,2.75
2022-10-26T10:52:39.041Z,2.70
2022-10-26T10:56:47.024Z,3.50
2022-10-26T11:00:52.282Z,2.50
2022-10-26T11:04:57.082Z,3.38
2022-10-26T11:09:15.941Z,2.17
2022-10-26T11:13:24.323Z,2.17
2022-10-26T11:17:31.358Z,2.35
2022-10-26T11:21:37.962Z,2.90
2022-10-26T11:25:51.681Z,1.20
2022-10-26T11:30:05.642Z,1.85
2022-10-26T11:34:19.581Z,0.77
2022-10-26T11:38:45.583Z,2.13
2022-10-26T11:43:01.838Z,0.88
2022-10-26T11:47:16.170Z,2.03
2022-10-26T11:51:46.744Z,3.78
2022-10-26T11:55:52.348Z,1.73
2022-10-26T12:00:05.463Z,2.72
2022-10-26T12:04:08.193Z,1.20
2022-10-26T12:08:45.800Z,1.70
2022-10-26T12:13:08.995Z,5.55
2022-10-26T12:17:17.120Z,7.32
2022-10-26T12:21:19.474Z,6.63
2022-10-26T12:25:22.309Z,3.55
2022-10-26T12:29:33.354Z,2.53
2022-10-26T12:33:50.400Z,2.28
2022-10-26T12:37:52.386Z,1.45
2022-10-26T12:42:06.714Z,3.03
2022-10-26T12:46:14.299Z,2.05
2022-10-26T12:50:16.094Z,1.77
2022-10-26T12:54:35.835Z,1.98
2022-10-26T12:58:52.750Z,2.03
2022-10-26T13:03:00.416Z,3.90
2022-10-26T13:07:13.610Z,2.78
2022-10-26T13:11:41.599Z,2.65
2022-10-26T13:15:57.341Z,4.97
2022-10-26T13:20:05.703Z,2.22
2022-10-26T13:24:14.782Z,4.88
2022-10-26T13:28:37.815Z,7.07
2022-10-26T13:32:42.772Z,4.57
2022-10-26T13:36:51.855Z,4.68
2022-10-26T13:41:00.183Z,5.65
2022-10-26T13:45:12.403Z,3.35
2022-10-26T13:49:21.928Z,3.53
2022-10-26T13:53:25.687Z,2.70
2022-10-26T13:57:40.739Z,2.50
2022-10-26T14:01:42.630Z,2.15
2022-10-26T14:05:48.241Z,2.80
2022-10-26T14:09:52.329Z,2.97
2022-10-26T14:13:55.435Z,1.38
2022-10-26T14:17:58.788Z,3.53
2022-10-26T14:22:01.535Z,3.35
2022-10-26T14:26:04.789Z,1.17
2022-10-26T14:30:31.588Z,2.40
2022-10-26T14:34:33.534Z,3.17
2022-10-26T14:38:45.335Z,6.18
2022-10-26T14:42:54.850Z,4.03
2022-10-26T14:46:57.045Z,2.80
2022-10-26T14:51:21.315Z,6.38
2022-10-26T14:55:24.783Z,3.10
2022-10-26T14:59:31.775Z,5.60
2022-10-26T15:03:33.594Z,3.07
2022-10-26T15:07:41.041Z,3.83
2022-10-26T15:11:44.011Z,2.10
2022-10-26T15:15:49.413Z,16.45
2022-10-26T15:19:52.522Z,3.35
2022-10-26T15:23:55.966Z,2.28
2022-10-26T15:28:23.655Z,2.92
2022-10-26T15:32:27.132Z,10.75
2022-10-26T15:36:32.957Z,7.60
2022-10-26T15:40:37.039Z,2.05
2022-10-26T15:44:39.038Z,3.08
2022-10-26T15:48:41.346Z,2.28
2022-10-26T15:52:46.644Z,3.58
2022-10-26T15:56:51.015Z,2.30
2022-10-26T16:00:53.011Z,5.63
2022-10-26T16:04:55.998Z,6.13
2022-10-26T16:09:00.423Z,3.17
2022-10-26T16:13:02.264Z,4.28
2022-10-26T16:17:04.598Z,4.85
2022-10-26T16:21:06.794Z,3.05
2022-10-26T16:25:08.713Z,2.63
2022-10-26T16:29:10.583Z,5.25
2022-10-26T16:33:12.558Z,5.15
2022-10-26T16:37:14.383Z,1.83
2022-10-26T16:41:19.263Z,2.08
2022-10-26T16:45:21.194Z,4.22
2022-10-26T16:49:23.040Z,3.30
2022-10-26T16:53:24.904Z,4.38
2022-10-26T16:57:27.121Z,3.40
2022-10-26T17:01:29.121Z,3.90
2022-10-26T17:05:31.127Z,11.70
2022-10-26T17:09:32.993Z,3.50
2022-10-26T17:13:36.043Z,5.40
2022-10-26T17:17:37.937Z,4.15
2022-10-26T17:21:39.832Z,4.63
2022-10-26T17:25:41.702Z,3.42
2022-10-26T17:29:43.649Z,5.07
2022-10-26T17:33:50.371Z,8.43
2022-10-26T17:37:52.444Z,7.03
2022-10-26T17:41:54.633Z,5.20
2022-10-26T17:46:00.804Z,4.70
2022-10-26T17:50:04.861Z,2.72
2022-10-26T17:54:07.099Z,5.43
2022-10-26T17:58:09.019Z,5.68
2022-10-26T18:02:11.098Z,6.25
2022-10-26T18:06:13.172Z,2.60
2022-10-26T18:10:36.486Z,3.75
2022-10-26T18:14:37.239Z,2.72
2022-10-26T18:18:40.261Z,4.75
2022-10-26T18:22:42.127Z,4.88
2022-10-26T18:26:43.949Z,5.53
2022-10-26T18:30:45.808Z,7.50
2022-10-26T18:34:48.030Z,2.95
2022-10-26T18:38:49.855Z,7.18
2022-10-26T18:42:51.667Z,25.23
2022-10-26T18:46:53.637Z,31.45
2022-10-26T18:50:56.274Z,6.40
2022-10-26T18:54:58.130Z,3.95
2022-10-26T18:59:00.702Z,5.60
2022-10-26T19:03:04.576Z,2.85
2022-10-26T19:07:06.441Z,4.35
2022-10-26T19:11:10.656Z,6.63
2022-10-26T19:15:12.530Z,5.35
2022-10-26T19:19:15.644Z,5.90
2022-10-26T19:23:17.501Z,5.10
2022-10-26T19:27:19.320Z,3.63
2022-10-26T19:31:24.840Z,5.40
2022-10-26T19:35:29.260Z,4.57
2022-10-26T19:39:31.188Z,4.28
2022-10-26T19:43:34.855Z,3.22
2022-10-26T19:47:36.680Z,4.10
2022-10-26T19:51:38.521Z,5.82
2022-10-26T19:55:45.900Z,4.63
2022-10-26T19:59:48.280Z,5.18
2022-10-26T20:03:50.268Z,6.57
2022-10-26T20:07:52.084Z,3.97
2022-10-26T20:11:53.954Z,4.85
2022-10-26T20:15:55.922Z,6.32
2022-10-26T20:19:57.731Z,9.98
2022-10-26T20:23:59.633Z,5.28
2022-10-26T20:28:02.280Z,5.70
2022-10-26T20:32:04.261Z,3.33
2022-10-26T20:36:06.394Z,3.25
2022-10-26T20:40:10.679Z,5.57
2022-10-26T20:44:21.520Z,3.85
2022-10-26T20:48:24.290Z,5.55
2022-10-26T20:52:35.419Z,5.90
2022-10-26T20:56:41.649Z,8.25
2022-10-26T21:00:54.515Z,6.55
2022-10-26T21:04:56.398Z,5.47
2022-10-26T21:08:58.215Z,7.65
2022-10-26T21:13:00.062Z,5.15
2022-10-26T21:17:01.954Z,6.80
2022-10-26T21:21:03.880Z,3.50
2022-10-26T21:25:06.179Z,5.75
2022-10-26T21:29:07.994Z,4.05
2022-10-26T21:33:09.820Z,7.03
2022-10-26T21:37:11.661Z,7.68
2022-10-26T21:41:21.207Z,9.02
2022-10-26T21:45:23.061Z,4.95
2022-10-26T21:49:24.903Z,6.15
2022-10-26T21:53:27.062Z,4.93
2022-10-26T21:57:28.924Z,5.40
2022-10-26T22:01:30.855Z,3.63
2022-10-26T22:05:33.698Z,6.88
2022-10-26T22:09:44.739Z,5.47
2022-10-26T22:13:57.642Z,8.13
2022-10-26T22:17:59.472Z,6.40
2022-10-26T22:22:01.277Z,6.47
2022-10-26T22:26:29.185Z,4.32
2022-10-26T22:30:31.004Z,3.17
2022-10-26T22:34:32.788Z,5.60
2022-10-26T22:38:34.749Z,7.35
2022-10-26T22:42:36.625Z,7.60
2022-10-26T22:46:38.763Z,5.47
2022-10-26T22:50:40.589Z,4.78
2022-10-26T22:54:42.412Z,8.45
2022-10-26T22:58:44.275Z,6.00
2022-10-26T23:02:46.067Z,3.53
2022-10-26T23:06:47.896Z,5.07
2022-10-26T23:10:49.710Z,2.78
2022-10-26T23:14:51.535Z,4.00
2022-10-26T23:18:53.769Z,5.85
2022-10-26T23:22:55.592Z,5.45
2022-10-26T23:26:57.388Z,4.80
2022-10-26T23:30:59.283Z,5.60
2022-10-26T23:35:01.115Z,5.60
2022-10-26T23:39:03.062Z,31.00
2022-10-26T23:43:04.893Z,6.57
2022-10-26T23:47:06.746Z,5.00
2022-10-26T23:51:08.645Z,6.50
2022-10-26T23:55:10.768Z,6.05
2022-10-26T23:59:12.603Z,6.00
